createdAt,value
2019-06-07T00:00:47.644Z,100851.38
2019-06-07T00:03:27.483Z,100862.69
2019-06-07T00:05:49.705Z,100873.16
2019-06-07T00:08:27.287Z,100876.12
2019-06-07T00:10:51.286Z,100875.61
2019-06-07T00:13:21.496Z,100864.95
2019-06-07T00:15:52.027Z,100859.56
2019-06-07T00:18:25.930Z,100847.58
2019-06-07T00:20:54.259Z,100841.56
2019-06-07T00:23:24.198Z,100835.90
2019-06-07T00:25:54.151Z,100831.56
2019-06-07T00:28:23.938Z,100832.55
2019-06-07T00:30:54.201Z,100836.55
2019-06-07T00:33:25.111Z,100846.52
2019-06-07T00:35:56.456Z,100845.84
2019-06-07T00:38:26.361Z,100841.84
2019-06-07T00:40:56.298Z,100839.83
2019-06-07T00:43:28.580Z,100840.48
2019-06-07T00:45:58.263Z,100850.30
2019-06-07T00:48:32.765Z,100848.78
2019-06-07T00:51:00.551Z,100851.25
2019-06-07T00:53:32.494Z,100846.77
2019-06-07T00:56:02.446Z,100850.41
2019-06-07T00:58:32.792Z,100855.40
2019-06-07T01:01:03.008Z,100857.22
2019-06-07T01:03:32.885Z,100862.20
2019-06-07T01:06:02.822Z,100861.38
2019-06-07T01:08:33.056Z,100858.02
2019-06-07T01:11:02.898Z,100861.33
2019-06-07T01:13:32.761Z,100861.67
2019-06-07T01:16:02.705Z,100858.67
2019-06-07T01:18:38.445Z,100855.66
2019-06-07T01:21:04.896Z,100852.02
2019-06-07T01:24:05.477Z,100847.68
2019-06-07T01:26:06.398Z,100841.67
2019-06-07T01:28:37.410Z,100842.66
2019-06-07T01:31:07.354Z,100843.99
2019-06-07T01:33:50.163Z,100844.48
2019-06-07T01:36:09.397Z,100836.69
2019-06-07T01:38:39.378Z,100841.82
2019-06-07T01:41:09.601Z,100844.45
2019-06-07T01:43:39.583Z,100846.23
2019-06-07T01:46:09.516Z,100845.20
2019-06-07T01:48:49.343Z,100845.00
2019-06-07T01:51:11.587Z,100843.48
2019-06-07T01:53:41.597Z,100847.28
2019-06-07T01:56:11.390Z,100847.93
2019-06-07T01:58:41.337Z,100841.42
2019-06-07T02:01:11.132Z,100835.45
2019-06-07T02:03:41.584Z,100835.45
2019-06-07T02:06:11.516Z,100830.97
2019-06-07T02:08:41.823Z,100834.62
2019-06-07T02:11:11.747Z,100834.27
2019-06-07T02:13:41.704Z,100820.28
2019-06-07T02:16:12.025Z,100825.11
2019-06-07T02:19:00.633Z,100816.30
2019-06-07T02:21:14.467Z,100822.75
2019-06-07T02:23:44.425Z,100815.77
2019-06-07T02:26:14.233Z,100814.73
2019-06-07T02:28:45.714Z,100814.39
2019-06-07T02:31:16.062Z,100806.56
2019-06-07T02:33:45.960Z,100802.26
2019-06-07T02:36:15.839Z,100796.25
2019-06-07T02:38:45.791Z,100792.07
2019-06-07T02:41:16.083Z,100799.02
2019-06-07T02:43:47.299Z,100799.66
2019-06-07T02:46:34.356Z,100803.95
2019-06-07T02:48:56.421Z,100798.63
2019-06-07T02:51:32.228Z,100801.89
2019-06-07T02:53:57.861Z,100797.70
2019-06-07T02:56:42.077Z,100797.52
2019-06-07T02:58:59.693Z,100789.69
2019-06-07T03:01:35.904Z,100781.03
2019-06-07T03:04:01.908Z,100782.16
2019-06-07T03:06:38.735Z,100774.53
2019-06-07T03:09:06.625Z,100777.86
2019-06-07T03:11:39.169Z,100778.52
2019-06-07T03:14:11.726Z,100775.52
2019-06-07T03:16:51.412Z,100768.55
2019-06-07T03:19:28.814Z,100761.08
2019-06-07T03:21:59.742Z,100764.72
2019-06-07T03:24:35.234Z,100762.70
2019-06-07T03:29:36.963Z,100754.73
2019-06-07T03:32:07.089Z,100760.05
2019-06-07T03:34:41.242Z,100761.52
2019-06-07T03:37:09.130Z,100755.52
2019-06-07T03:39:40.992Z,100753.84
2019-06-07T03:42:11.418Z,100748.87
2019-06-07T03:44:41.824Z,100748.53
2019-06-07T03:47:11.969Z,100753.70
2019-06-07T03:49:42.753Z,100756.02
2019-06-07T03:52:13.188Z,100767.48
2019-06-07T03:54:43.424Z,100761.67
2019-06-07T03:57:13.567Z,100762.16
2019-06-07T03:59:43.732Z,100758.86
2019-06-07T04:02:13.878Z,100754.88
2019-06-07T04:04:44.058Z,100755.56
2019-06-07T04:07:14.222Z,100755.27
2019-06-07T04:09:44.747Z,100760.74
2019-06-07T04:12:14.919Z,100757.94
2019-06-07T04:14:45.004Z,100752.31
2019-06-07T04:17:15.257Z,100751.67
2019-06-07T04:19:45.344Z,100740.39
2019-06-07T04:22:15.456Z,100744.11
2019-06-07T04:24:45.591Z,100739.45
2019-06-07T04:27:15.762Z,100733.81
2019-06-07T04:30:05.680Z,100733.64
2019-06-07T04:32:17.714Z,100734.80
2019-06-07T04:34:47.901Z,100730.81
2019-06-07T04:37:18.729Z,100726.83
2019-06-07T04:39:50.432Z,100722.55
2019-06-07T04:42:21.231Z,100716.55
2019-06-07T04:44:53.387Z,100711.91
2019-06-07T04:47:26.719Z,100706.59
2019-06-07T04:49:57.951Z,100700.28
2019-06-07T04:52:30.005Z,100698.30
2019-06-07T04:55:00.890Z,100693.82
2019-06-07T04:57:33.492Z,100701.61
2019-06-07T05:00:33.330Z,100697.47
2019-06-07T05:02:38.626Z,100689.00
2019-06-07T05:05:07.206Z,100692.98
2019-06-07T05:07:39.991Z,100695.15
2019-06-07T05:10:09.300Z,100693.67
2019-06-07T05:12:43.785Z,100683.52
2019-06-07T05:15:11.363Z,100680.86
2019-06-07T05:17:44.819Z,100684.36
2019-06-07T05:20:13.630Z,100682.38
2019-06-07T05:22:45.292Z,100681.89
2019-06-07T05:25:15.655Z,100677.71
2019-06-07T05:27:46.872Z,100674.22
2019-06-07T05:31:02.122Z,100669.88
2019-06-07T05:33:07.898Z,100666.39
2019-06-07T05:35:41.736Z,100662.41
2019-06-07T05:38:10.530Z,100666.55
2019-06-07T05:40:43.730Z,100657.58
2019-06-07T05:43:24.770Z,100665.74
2019-06-07T05:45:54.997Z,100663.42
2019-06-07T05:48:25.163Z,100660.77
2019-06-07T05:50:57.467Z,100656.12
2019-06-07T05:53:27.115Z,100650.31
2019-06-07T05:55:57.268Z,100654.30
2019-06-07T05:58:27.460Z,100655.48
2019-06-07T06:01:41.766Z,100656.34
2019-06-07T06:03:29.560Z,100639.89
2019-06-07T06:05:59.663Z,100639.58
2019-06-07T06:08:29.780Z,100643.07
2019-06-07T06:11:00.089Z,100638.92
2019-06-07T06:13:30.224Z,100638.59
2019-06-07T06:16:02.407Z,100638.58
2019-06-07T06:18:32.327Z,100631.62
2019-06-07T06:21:16.074Z,100625.31
2019-06-07T06:23:34.407Z,100628.64
2019-06-07T06:26:04.658Z,100619.36
2019-06-07T06:28:36.926Z,100615.86
2019-06-07T06:31:06.650Z,100610.53
2019-06-07T06:33:37.456Z,100596.75
2019-06-07T06:36:07.792Z,100596.78
2019-06-07T06:38:38.590Z,100596.28
2019-06-07T06:41:15.973Z,100598.47
2019-06-07T06:43:46.352Z,100596.13
2019-06-07T06:46:13.573Z,100596.65
2019-06-07T06:48:49.439Z,100589.17
2019-06-07T06:51:15.454Z,100582.20
2019-06-07T06:53:46.915Z,100587.34
2019-06-07T06:56:18.116Z,100583.36
2019-06-07T06:59:27.379Z,100584.86
2019-06-07T07:01:20.221Z,100583.21
2019-06-07T07:04:06.794Z,100571.25
2019-06-07T07:06:26.562Z,100569.56
2019-06-07T07:08:56.822Z,100580.56
2019-06-07T07:11:26.941Z,100581.23
2019-06-07T07:13:57.345Z,100576.91
2019-06-07T07:16:27.508Z,100570.94
2019-06-07T07:18:57.666Z,100566.62
2019-06-07T07:21:27.801Z,100566.95
2019-06-07T07:24:21.842Z,100560.13
2019-06-07T07:26:29.783Z,100551.97
2019-06-07T07:28:59.956Z,100555.31
2019-06-07T07:31:30.317Z,100551.29
2019-06-07T07:34:28.299Z,100552.13
2019-06-07T07:36:39.170Z,100541.47
2019-06-07T07:39:06.128Z,100536.81
2019-06-07T07:41:36.717Z,100540.15
2019-06-07T07:44:07.895Z,100536.29
2019-06-07T07:46:38.798Z,100532.79
2019-06-07T07:49:08.920Z,100528.63
2019-06-07T07:51:39.074Z,100528.63
2019-06-07T07:54:11.116Z,100530.30
2019-06-07T07:56:41.104Z,100518.61
2019-06-07T07:59:11.343Z,100521.61
2019-06-07T08:01:41.520Z,100511.94
2019-06-07T08:04:11.727Z,100507.61
2019-06-07T08:06:41.832Z,100499.27
2019-06-07T08:09:11.957Z,100491.44
2019-06-07T08:11:42.143Z,100494.91
2019-06-07T08:14:12.275Z,100486.91
2019-06-07T08:16:42.399Z,100482.22
2019-06-07T08:19:13.103Z,100470.52
2019-06-07T08:21:43.286Z,100470.50
2019-06-07T08:24:13.609Z,100465.16
2019-06-07T08:26:43.670Z,100465.61
2019-06-07T08:29:13.765Z,100455.46
2019-06-07T08:31:43.920Z,100447.45
2019-06-07T08:34:14.142Z,100443.42
2019-06-07T08:36:44.340Z,100429.71
2019-06-07T08:39:14.539Z,100431.03
2019-06-07T08:41:59.341Z,100413.99
2019-06-07T08:44:23.748Z,100423.61
2019-06-07T08:46:56.636Z,100425.25
2019-06-07T08:49:21.034Z,100423.57
2019-06-07T08:51:52.570Z,100427.55
2019-06-07T08:54:23.545Z,100417.98
2019-06-07T08:57:16.784Z,100418.46
2019-06-07T08:59:29.076Z,100409.27
2019-06-07T09:02:03.649Z,100402.75
2019-06-07T09:04:31.027Z,100396.67
2019-06-07T09:07:10.443Z,100402.66
2019-06-07T09:09:34.115Z,100403.14
2019-06-07T09:12:08.069Z,100391.27
2019-06-07T09:14:58.299Z,100403.95
2019-06-07T09:17:12.093Z,100394.21
2019-06-07T09:19:39.543Z,100391.69
2019-06-07T09:22:11.478Z,100382.48
2019-06-07T09:24:41.107Z,100369.43
2019-06-07T09:27:11.326Z,100364.67
2019-06-07T09:29:43.735Z,100354.45
2019-06-07T09:32:18.109Z,100342.44
2019-06-07T09:34:45.651Z,100335.21
2019-06-07T09:38:03.484Z,100332.29
2019-06-07T09:39:48.936Z,100332.06
2019-06-07T09:42:18.864Z,100325.02
2019-06-07T09:44:49.090Z,100316.42
2019-06-07T09:47:31.650Z,100319.89
2019-06-07T09:49:50.862Z,100318.83
2019-06-07T09:52:20.793Z,100309.40
2019-06-07T09:55:19.533Z,100317.05
2019-06-07T09:57:22.472Z,100312.67
2019-06-07T09:59:52.668Z,100311.61
2019-06-07T10:02:22.606Z,100309.08
2019-06-07T10:04:52.552Z,100302.95
2019-06-07T10:07:31.421Z,100311.12
2019-06-07T10:10:12.576Z,100302.03
2019-06-07T10:12:26.138Z,100292.59
2019-06-07T10:14:56.057Z,100292.35
2019-06-07T10:17:26.008Z,100286.86
2019-06-07T10:19:56.142Z,100287.96
2019-06-07T10:22:26.083Z,100287.56
2019-06-07T10:24:56.030Z,100291.62
2019-06-07T10:27:25.965Z,100294.69
2019-06-07T10:29:56.205Z,100290.72
2019-06-07T10:32:26.147Z,100288.05
2019-06-07T10:34:56.190Z,100287.38
2019-06-07T10:37:26.201Z,100283.44
2019-06-07T10:39:56.093Z,100281.80
2019-06-07T10:42:26.009Z,100280.84
2019-06-07T10:44:55.875Z,100281.25
2019-06-07T10:47:25.855Z,100279.70
2019-06-07T10:49:55.652Z,100275.75
2019-06-07T10:52:25.673Z,100266.36
2019-06-07T10:54:55.472Z,100276.55
2019-06-07T10:57:25.754Z,100273.17
2019-06-07T10:59:55.624Z,100251.64
2019-06-07T11:02:25.778Z,100240.18
2019-06-07T11:04:56.845Z,100246.39
2019-06-07T11:07:26.909Z,100227.86
2019-06-07T11:10:07.355Z,100227.86
2019-06-07T11:12:28.488Z,100219.75
2019-06-07T11:14:58.713Z,100212.44
2019-06-07T11:17:28.511Z,100202.85
2019-06-07T11:19:58.441Z,100194.33
2019-06-07T11:22:28.600Z,100187.22
2019-06-07T11:24:58.525Z,100176.97
2019-06-07T11:27:28.307Z,100175.09
2019-06-07T11:29:58.248Z,100168.42
2019-06-07T11:32:28.969Z,100159.60
2019-06-07T11:34:58.904Z,100153.09
2019-06-07T11:37:28.830Z,100137.85
2019-06-07T11:39:58.683Z,100144.21
2019-06-07T11:42:28.520Z,100148.66
2019-06-07T11:44:58.390Z,100165.94
2019-06-07T11:47:28.452Z,100163.89
2019-06-07T11:49:58.307Z,100156.52
2019-06-07T11:52:28.521Z,100132.63
2019-06-07T11:54:58.513Z,100145.36
2019-06-07T11:57:28.633Z,100129.25
2019-06-07T11:59:58.487Z,100117.41
2019-06-07T12:02:28.545Z,100116.13
2019-06-07T12:04:58.408Z,100103.13
2019-06-07T12:07:28.906Z,100092.17
2019-06-07T12:09:58.894Z,100096.22
2019-06-07T12:12:28.883Z,100102.75
2019-06-07T12:14:58.822Z,100109.52
2019-06-07T12:17:29.073Z,100102.64
2019-06-07T12:19:59.060Z,100105.86
2019-06-07T12:22:28.966Z,100093.06
2019-06-07T12:24:59.180Z,100111.27
2019-06-07T12:27:29.112Z,100096.09
2019-06-07T12:29:59.045Z,100089.67
2019-06-07T12:32:28.901Z,100086.03
2019-06-07T12:34:59.076Z,100088.13
2019-06-07T12:37:43.130Z,100088.39
2019-06-07T12:40:00.698Z,100085.39
2019-06-07T12:42:30.545Z,100079.34
2019-06-07T12:45:00.399Z,100078.13
2019-06-07T12:47:31.375Z,100094.56
2019-06-07T12:50:01.170Z,100098.27
2019-06-07T12:52:31.151Z,100101.36
2019-06-07T12:55:00.974Z,100100.17
2019-06-07T12:57:30.972Z,100096.19
2019-06-07T13:00:00.895Z,100099.47
2019-06-07T13:02:30.885Z,100097.87
2019-06-07T13:05:04.562Z,100086.53
2019-06-07T13:07:32.410Z,100087.69
2019-06-07T13:10:02.349Z,100087.47
2019-06-07T13:12:32.412Z,100088.37
2019-06-07T13:17:51.326Z,100083.48
2019-06-07T13:20:24.606Z,100085.83
2019-06-07T13:22:54.798Z,100082.92
2019-06-07T13:25:41.122Z,100072.36
2019-06-07T13:27:56.587Z,100077.91
2019-06-07T13:30:26.516Z,100078.09
2019-06-07T13:32:56.369Z,100080.70
2019-06-07T13:35:29.345Z,100076.52
2019-06-07T13:37:59.728Z,100076.91
2019-06-07T13:40:30.284Z,100061.70
2019-06-07T13:43:00.153Z,100067.13
2019-06-07T13:45:31.376Z,100068.56
2019-06-07T13:48:01.392Z,100071.39
2019-06-07T13:50:31.647Z,100064.33
2019-06-07T13:53:01.634Z,100062.29
2019-06-07T13:55:31.574Z,100074.13
2019-06-07T13:58:01.575Z,100061.26
2019-06-07T14:00:31.539Z,100057.84
2019-06-07T14:03:02.536Z,100055.70
2019-06-07T14:05:32.477Z,100044.07
2019-06-07T14:08:06.924Z,100051.48
2019-06-07T14:10:38.462Z,100050.13
2019-06-07T14:16:00.488Z,100050.31
2019-06-07T14:18:30.665Z,100047.17
2019-06-07T14:21:00.665Z,100043.16
2019-06-07T14:23:46.190Z,100045.10
2019-06-07T14:26:02.058Z,100048.44
2019-06-07T14:28:34.167Z,100051.45
2019-06-07T14:31:03.660Z,100060.50
2019-06-07T14:33:33.907Z,100052.38
2019-06-07T14:36:04.066Z,100036.09
2019-06-07T14:38:37.511Z,100034.48
2019-06-07T14:41:05.664Z,100021.95
2019-06-07T14:43:54.530Z,100010.13
2019-06-07T14:46:25.605Z,100013.35
2019-06-07T14:49:14.882Z,100035.53
2019-06-07T14:51:45.870Z,100039.83
2019-06-07T14:54:17.960Z,100041.06
2019-06-07T14:56:52.829Z,100050.77
2019-06-07T14:59:23.215Z,100039.91
2019-06-07T15:01:53.241Z,100044.98
2019-06-07T15:04:24.338Z,100042.71
2019-06-07T15:06:54.142Z,100054.25
2019-06-07T15:09:24.102Z,100052.55
2019-06-07T15:11:53.973Z,100058.83
2019-06-07T15:14:23.865Z,100058.09
2019-06-07T15:16:54.185Z,100051.73
2019-06-07T15:19:24.417Z,100050.22
2019-06-07T15:21:54.676Z,100065.94
2019-06-07T15:24:24.457Z,100069.49
2019-06-07T15:26:54.409Z,100090.39
2019-06-07T15:29:24.835Z,100095.88
2019-06-07T15:31:55.030Z,100112.02
2019-06-07T15:34:24.956Z,100113.78
2019-06-07T15:36:54.912Z,100129.61
2019-06-07T15:39:24.812Z,100153.92
2019-06-07T15:41:55.327Z,100167.54
2019-06-07T15:44:25.444Z,100186.88
2019-06-07T15:46:56.024Z,100239.06
2019-06-07T15:49:26.506Z,100229.88
2019-06-07T15:51:56.787Z,100233.37
2019-06-07T15:54:26.562Z,100213.23
2019-06-07T15:56:56.424Z,100209.09
2019-06-07T15:59:26.269Z,100205.30
2019-06-07T16:01:56.303Z,100198.69
2019-06-07T16:04:26.195Z,100214.16
2019-06-07T16:06:56.059Z,100216.17
2019-06-07T16:09:25.983Z,100214.70
2019-06-07T16:11:56.218Z,100234.06
2019-06-07T16:14:26.416Z,100259.35
2019-06-07T16:16:56.276Z,100299.52
2019-06-07T16:19:26.208Z,100315.98
2019-06-07T16:21:56.099Z,100321.50
2019-06-07T16:24:26.036Z,100349.66
2019-06-07T16:26:55.985Z,100338.59
2019-06-07T16:29:25.922Z,100336.50
2019-06-07T16:31:57.197Z,100335.78
2019-06-07T16:34:27.383Z,100368.16
2019-06-07T16:36:57.337Z,100368.48
2019-06-07T16:39:27.137Z,100391.25
2019-06-07T16:41:57.017Z,100380.70
2019-06-07T16:44:26.806Z,100375.94
2019-06-07T16:46:57.091Z,100389.25
2019-06-07T16:49:28.345Z,100375.12
2019-06-07T16:51:58.204Z,100398.48
2019-06-07T16:54:28.162Z,100380.38
2019-06-07T16:56:58.026Z,100399.76
2019-06-07T16:59:27.806Z,100410.70
2019-06-07T17:01:57.677Z,100406.05
2019-06-07T17:04:27.879Z,100414.02
2019-06-07T17:06:58.151Z,100403.87
2019-06-07T17:09:28.057Z,100403.08
2019-06-07T17:11:58.232Z,100423.33
2019-06-07T17:14:28.896Z,100436.66
2019-06-07T17:16:58.859Z,100442.70
2019-06-07T17:19:28.743Z,100474.42
2019-06-07T17:21:58.599Z,100483.65
2019-06-07T17:24:28.508Z,100470.64
2019-06-07T17:26:58.613Z,100461.20
2019-06-07T17:29:28.842Z,100458.86
2019-06-07T17:31:58.763Z,100457.55
2019-06-07T17:34:28.715Z,100443.72
2019-06-07T17:36:58.648Z,100434.42
2019-06-07T17:39:28.902Z,100431.83
2019-06-07T17:42:01.968Z,100431.14
2019-06-07T17:44:30.661Z,100428.35
2019-06-07T17:47:00.453Z,100428.27
2019-06-07T17:49:30.663Z,100410.83
2019-06-07T17:52:00.610Z,100419.06
2019-06-07T17:54:30.496Z,100414.48
2019-06-07T17:57:00.420Z,100397.64
2019-06-07T17:59:30.299Z,100403.33
2019-06-07T18:02:13.923Z,100419.32
2019-06-07T18:04:32.114Z,100410.52
2019-06-07T18:07:02.045Z,100397.09
2019-06-07T18:09:32.178Z,100387.72
2019-06-07T18:12:02.060Z,100394.55
2019-06-07T18:14:32.027Z,100377.89
2019-06-07T18:17:01.885Z,100369.55
2019-06-07T18:19:31.746Z,100343.05
2019-06-07T18:22:01.645Z,100334.25
2019-06-07T18:24:31.501Z,100338.27
2019-06-07T18:27:02.509Z,100316.10
2019-06-07T18:29:32.292Z,100318.08
2019-06-07T18:32:02.251Z,100329.20
2019-06-07T18:34:32.120Z,100329.72
2019-06-07T18:37:02.002Z,100334.38
2019-06-07T18:39:31.964Z,100296.84
2019-06-07T18:42:02.178Z,100289.51
2019-06-07T18:44:32.042Z,100308.24
2019-06-07T18:47:02.000Z,100317.61
2019-06-07T18:49:31.848Z,100319.65
2019-06-07T18:52:21.035Z,100304.23
2019-06-07T18:54:51.329Z,100329.02
2019-06-07T18:57:21.195Z,100297.22
2019-06-07T18:59:52.305Z,100304.80
2019-06-07T19:02:22.201Z,100300.36
2019-06-07T19:04:52.288Z,100267.61
2019-06-07T19:07:23.934Z,100249.19
2019-06-07T19:09:54.995Z,100252.00
2019-06-07T19:12:25.316Z,100249.19
2019-06-07T19:14:55.549Z,100336.17
2019-06-07T19:17:25.536Z,100362.72
2019-06-07T19:19:56.185Z,100359.81
2019-06-07T19:22:26.550Z,100388.01
2019-06-07T19:24:56.912Z,100373.58
2019-06-07T19:27:27.467Z,100368.78
2019-06-07T19:29:57.403Z,100363.05
2019-06-07T19:32:27.278Z,100365.36
2019-06-07T19:34:57.473Z,100365.86
2019-06-07T19:37:27.460Z,100362.03
2019-06-07T19:39:58.070Z,100372.69
2019-06-07T19:42:28.065Z,100364.16
2019-06-07T19:45:16.810Z,100374.86
2019-06-07T19:47:29.670Z,100362.08
2019-06-07T19:50:00.821Z,100346.08
2019-06-07T19:52:31.061Z,100352.84
2019-06-07T19:55:05.782Z,100371.12
2019-06-07T19:57:32.713Z,100384.63
2019-06-07T20:00:12.845Z,100395.98
2019-06-07T20:02:34.919Z,100409.50
2019-06-07T20:05:06.941Z,100415.28
2019-06-07T20:07:37.035Z,100429.16
2019-06-07T20:10:07.593Z,100434.41
2019-06-07T20:12:37.541Z,100427.20
2019-06-07T20:15:27.279Z,100444.92
2019-06-07T20:17:40.158Z,100451.61
2019-06-07T20:20:10.635Z,100468.43
2019-06-07T20:22:40.577Z,100460.16
2019-06-07T20:25:11.099Z,100447.39
2019-06-07T20:27:41.035Z,100432.76
2019-06-07T20:30:14.111Z,100415.38
2019-06-07T20:32:43.970Z,100414.36
2019-06-07T20:35:13.930Z,100430.73
2019-06-07T20:37:43.900Z,100437.14
2019-06-07T20:40:23.629Z,100432.15
2019-06-07T20:42:45.823Z,100428.78
2019-06-07T20:45:30.071Z,100433.95
2019-06-07T20:47:48.677Z,100430.16
2019-06-07T20:50:18.968Z,100421.13
2019-06-07T20:52:48.901Z,100434.22
2019-06-07T20:55:18.852Z,100429.91
2019-06-07T20:57:49.708Z,100437.32
2019-06-07T21:00:21.916Z,100443.83
2019-06-07T21:02:51.544Z,100431.98
2019-06-07T21:05:21.430Z,100423.45
2019-06-07T21:07:51.342Z,100435.77
2019-06-07T21:10:21.270Z,100436.70
2019-06-07T21:12:51.222Z,100447.14
2019-06-07T21:15:21.138Z,100454.84
2019-06-07T21:17:50.922Z,100460.52
2019-06-07T21:20:20.927Z,100458.20
2019-06-07T21:22:51.029Z,100440.49
2019-06-07T21:25:21.028Z,100412.75
2019-06-07T21:27:51.157Z,100430.85
2019-06-07T21:30:21.145Z,100462.42
2019-06-07T21:32:51.044Z,100468.04
2019-06-07T21:35:20.995Z,100452.00
2019-06-07T21:37:51.009Z,100456.52
2019-06-07T21:40:20.983Z,100456.02
2019-06-07T21:42:50.938Z,100449.12
2019-06-07T21:45:20.881Z,100469.52
2019-06-07T21:47:51.865Z,100484.72
2019-06-07T21:50:21.856Z,100477.06
2019-06-07T21:52:52.066Z,100484.45
2019-06-07T21:55:22.333Z,100488.14
2019-06-07T21:57:52.199Z,100509.06
2019-06-07T22:00:28.640Z,100502.21
2019-06-07T22:03:00.114Z,100506.90
2019-06-07T22:05:30.055Z,100509.24
2019-06-07T22:08:00.012Z,100515.92
2019-06-07T22:10:29.893Z,100520.59
2019-06-07T22:12:59.765Z,100522.27
2019-06-07T22:15:35.311Z,100528.93
2019-06-07T22:18:01.581Z,100544.97
2019-06-07T22:20:31.560Z,100522.55
2019-06-07T22:23:01.763Z,100521.21
2019-06-07T22:25:31.652Z,100518.92
2019-06-07T22:28:01.573Z,100519.27
2019-06-07T22:30:31.509Z,100500.31
2019-06-07T22:33:01.639Z,100498.02
2019-06-07T22:35:31.876Z,100502.36
2019-06-07T22:38:01.883Z,100514.07
2019-06-07T22:40:31.758Z,100513.06
2019-06-07T22:43:01.649Z,100512.94
2019-06-07T22:45:31.588Z,100515.41
2019-06-07T22:48:01.445Z,100511.78
2019-06-07T22:50:31.704Z,100523.24
2019-06-07T22:53:01.666Z,100527.58
2019-06-07T22:55:31.882Z,100537.08
2019-06-07T22:58:02.009Z,100538.24
2019-06-07T23:00:33.245Z,100537.23
2019-06-07T23:03:03.201Z,100541.87
2019-06-07T23:05:33.205Z,100538.72
2019-06-07T23:08:03.239Z,100547.06
2019-06-07T23:10:33.226Z,100534.37
2019-06-07T23:13:03.473Z,100546.66
2019-06-07T23:15:33.550Z,100540.99
2019-06-07T23:18:03.498Z,100533.63
2019-06-07T23:20:33.442Z,100537.31
2019-06-07T23:23:03.306Z,100549.81
2019-06-07T23:25:33.182Z,100552.84
2019-06-07T23:28:03.074Z,100550.39
2019-06-07T23:30:32.993Z,100545.05
2019-06-07T23:33:03.166Z,100559.44
2019-06-07T23:35:33.466Z,100550.44
2019-06-07T23:38:03.380Z,100552.45
2019-06-07T23:40:33.346Z,100553.83
2019-06-07T23:43:03.358Z,100555.17
2019-06-07T23:45:33.320Z,100553.50
2019-06-07T23:48:03.176Z,100557.53
2019-06-07T23:50:32.969Z,100557.18
2019-06-07T23:53:02.816Z,100556.54
2019-06-07T23:55:32.700Z,100569.73
2019-06-07T23:58:02.928Z,100563.91
